sensor_id;sensor_type;location;lat;lon;timestamp;P1;durP1;ratioP1;P2;durP2;ratioP2
42854;SDS011;29183;48.038;14.346;2022-10-16T00:00:53;3.55;;;1.70;;
42854;SDS011;29183;48.038;14.346;2022-10-16T00:03:31;5.53;;;2.22;;
42854;SDS011;29183;48.038;14.346;2022-10-16T00:08:54;5.10;;;2.00;;
42854;SDS011;29183;48.038;14.346;2022-10-16T00:11:31;4.72;;;3.65;;
42854;SDS011;29183;48.038;14.346;2022-10-16T00:16:52;5.68;;;3.00;;
42854;SDS011;29183;48.038;14.346;2022-10-16T00:19:21;7.55;;;3.35;;
42854;SDS011;29183;48.038;14.346;2022-10-16T00:24:25;4.60;;;3.30;;
42854;SDS011;29183;48.038;14.346;2022-10-16T00:26:52;15.38;;;4.00;;
42854;SDS011;29183;48.038;14.346;2022-10-16T00:31:59;7.30;;;3.38;;
42854;SDS011;29183;48.038;14.346;2022-10-16T00:37:09;5.40;;;2.58;;
42854;SDS011;29183;48.038;14.346;2022-10-16T00:42:44;4.47;;;2.55;;
42854;SDS011;29183;48.038;14.346;2022-10-16T00:45:12;4.53;;;2.55;;
42854;SDS011;29183;48.038;14.346;2022-10-16T00:50:30;5.68;;;3.50;;
42854;SDS011;29183;48.038;14.346;2022-10-16T00:52:59;5.68;;;2.80;;
42854;SDS011;29183;48.038;14.346;2022-10-16T00:55:28;9.60;;;3.58;;
42854;SDS011;29183;48.038;14.346;2022-10-16T00:57:57;13.52;;;3.00;;
42854;SDS011;29183;48.038;14.346;2022-10-16T01:02:59;7.95;;;3.42;;
42854;SDS011;29183;48.038;14.346;2022-10-16T01:13:42;4.43;;;2.28;;
42854;SDS011;29183;48.038;14.346;2022-10-16T01:22:22;7.38;;;2.72;;
42854;SDS011;29183;48.038;14.346;2022-10-16T01:25:00;6.45;;;2.88;;
42854;SDS011;29183;48.038;14.346;2022-10-16T01:27:34;5.20;;;2.00;;
42854;SDS011;29183;48.038;14.346;2022-10-16T01:30:11;4.70;;;2.20;;
42854;SDS011;29183;48.038;14.346;2022-10-16T01:36:03;5.40;;;2.20;;
42854;SDS011;29183;48.038;14.346;2022-10-16T01:38:43;8.07;;;2.38;;
42854;SDS011;29183;48.038;14.346;2022-10-16T01:44:26;4.15;;;2.05;;
42854;SDS011;29183;48.038;14.346;2022-10-16T01:47:04;4.20;;;2.22;;
42854;SDS011;29183;48.038;14.346;2022-10-16T01:49:34;7.80;;;2.00;;
42854;SDS011;29183;48.038;14.346;2022-10-16T01:52:05;2.53;;;2.10;;
42854;SDS011;29183;48.038;14.346;2022-10-16T01:54:37;3.42;;;2.22;;
42854;SDS011;29183;48.038;14.346;2022-10-16T01:57:15;4.88;;;2.22;;
42854;SDS011;29183;48.038;14.346;2022-10-16T02:00:02;7.10;;;2.63;;
42854;SDS011;29183;48.038;14.346;2022-10-16T02:02:43;7.95;;;2.35;;
42854;SDS011;29183;48.038;14.346;2022-10-16T02:05:20;6.60;;;2.28;;
42854;SDS011;29183;48.038;14.346;2022-10-16T02:10:44;4.32;;;1.92;;
42854;SDS011;29183;48.038;14.346;2022-10-16T02:15:51;4.00;;;1.63;;
42854;SDS011;29183;48.038;14.346;2022-10-16T02:18:19;5.63;;;1.45;;
42854;SDS011;29183;48.038;14.346;2022-10-16T02:30:59;8.07;;;2.08;;
42854;SDS011;29183;48.038;14.346;2022-10-16T02:33:28;7.93;;;1.55;;
42854;SDS011;29183;48.038;14.346;2022-10-16T02:35:57;2.83;;;1.40;;
42854;SDS011;29183;48.038;14.346;2022-10-16T02:38:28;1.50;;;1.13;;
42854;SDS011;29183;48.038;14.346;2022-10-16T02:41:00;1.65;;;1.20;;
42854;SDS011;29183;48.038;14.346;2022-10-16T02:48:43;3.17;;;1.40;;
42854;SDS011;29183;48.038;14.346;2022-10-16T02:51:31;3.97;;;1.80;;
42854;SDS011;29183;48.038;14.346;2022-10-16T02:54:08;3.72;;;1.73;;
42854;SDS011;29183;48.038;14.346;2022-10-16T03:12:26;29.33;;;6.07;;
42854;SDS011;29183;48.038;14.346;2022-10-16T03:18:20;82.45;;;7.15;;
42854;SDS011;29183;48.038;14.346;2022-10-16T03:21:12;34.13;;;4.50;;
42854;SDS011;29183;48.038;14.346;2022-10-16T03:40:11;42.63;;;4.40;;
42854;SDS011;29183;48.038;14.346;2022-10-16T03:46:47;38.65;;;4.75;;
42854;SDS011;29183;48.038;14.346;2022-10-16T03:49:21;37.70;;;3.72;;
42854;SDS011;29183;48.038;14.346;2022-10-16T03:51:59;10.43;;;1.85;;
42854;SDS011;29183;48.038;14.346;2022-10-16T03:56:58;2.55;;;1.10;;
42854;SDS011;29183;48.038;14.346;2022-10-16T03:59:26;2.67;;;1.48;;
42854;SDS011;29183;48.038;14.346;2022-10-16T04:02:02;4.53;;;1.30;;
42854;SDS011;29183;48.038;14.346;2022-10-16T04:04:37;2.22;;;1.60;;
42854;SDS011;29183;48.038;14.346;2022-10-16T04:07:15;2.53;;;1.40;;
42854;SDS011;29183;48.038;14.346;2022-10-16T04:09:43;2.22;;;1.42;;
42854;SDS011;29183;48.038;14.346;2022-10-16T04:12:12;4.20;;;1.92;;
42854;SDS011;29183;48.038;14.346;2022-10-16T04:14:49;3.47;;;1.73;;
42854;SDS011;29183;48.038;14.346;2022-10-16T04:17:19;8.57;;;2.30;;
42854;SDS011;29183;48.038;14.346;2022-10-16T04:20:00;4.32;;;2.70;;
42854;SDS011;29183;48.038;14.346;2022-10-16T04:22:35;3.67;;;2.55;;
42854;SDS011;29183;48.038;14.346;2022-10-16T04:27:58;2.03;;;1.48;;
42854;SDS011;29183;48.038;14.346;2022-10-16T04:30:44;5.63;;;1.60;;
42854;SDS011;29183;48.038;14.346;2022-10-16T04:33:15;2.70;;;1.85;;
42854;SDS011;29183;48.038;14.346;2022-10-16T04:35:45;45.13;;;4.60;;
42854;SDS011;29183;48.038;14.346;2022-10-16T04:38:13;91.47;;;8.13;;
42854;SDS011;29183;48.038;14.346;2022-10-16T04:40:44;11.10;;;2.92;;
42854;SDS011;29183;48.038;14.346;2022-10-16T04:45:52;4.88;;;2.70;;
42854;SDS011;29183;48.038;14.346;2022-10-16T04:48:22;8.98;;;2.70;;
42854;SDS011;29183;48.038;14.346;2022-10-16T04:51:06;8.45;;;2.80;;
42854;SDS011;29183;48.038;14.346;2022-10-16T04:53:36;9.75;;;2.70;;
42854;SDS011;29183;48.038;14.346;2022-10-16T04:56:06;8.70;;;3.72;;
42854;SDS011;29183;48.038;14.346;2022-10-16T04:58:34;37.20;;;12.95;;
42854;SDS011;29183;48.038;14.346;2022-10-16T05:01:13;31.05;;;12.27;;
42854;SDS011;29183;48.038;14.346;2022-10-16T05:03:47;16.85;;;7.43;;
42854;SDS011;29183;48.038;14.346;2022-10-16T05:06:28;8.90;;;2.70;;
42854;SDS011;29183;48.038;14.346;2022-10-16T05:08:56;3.53;;;1.85;;
42854;SDS011;29183;48.038;14.346;2022-10-16T05:11:25;7.78;;;1.83;;
42854;SDS011;29183;48.038;14.346;2022-10-16T05:14:01;25.48;;;2.75;;
42854;SDS011;29183;48.038;14.346;2022-10-16T05:16:35;36.20;;;3.50;;
42854;SDS011;29183;48.038;14.346;2022-10-16T05:19:11;20.95;;;3.10;;
42854;SDS011;29183;48.038;14.346;2022-10-16T05:24:32;8.77;;;3.20;;
42854;SDS011;29183;48.038;14.346;2022-10-16T05:27:02;9.80;;;2.30;;
42854;SDS011;29183;48.038;14.346;2022-10-16T05:35:00;6.72;;;2.35;;
42854;SDS011;29183;48.038;14.346;2022-10-16T05:37:39;6.38;;;2.25;;
42854;SDS011;29183;48.038;14.346;2022-10-16T05:40:20;44.00;;;8.93;;
42854;SDS011;29183;48.038;14.346;2022-10-16T05:42:49;14.77;;;3.75;;
42854;SDS011;29183;48.038;14.346;2022-10-16T05:47:53;26.88;;;5.35;;
42854;SDS011;29183;48.038;14.346;2022-10-16T05:50:22;11.38;;;2.40;;
42854;SDS011;29183;48.038;14.346;2022-10-16T05:52:53;18.88;;;3.53;;
42854;SDS011;29183;48.038;14.346;2022-10-16T05:55:21;15.27;;;4.13;;
42854;SDS011;29183;48.038;14.346;2022-10-16T06:00:26;2.35;;;2.15;;
42854;SDS011;29183;48.038;14.346;2022-10-16T06:02:55;9.50;;;2.85;;
42854;SDS011;29183;48.038;14.346;2022-10-16T06:05:23;7.80;;;2.75;;
42854;SDS011;29183;48.038;14.346;2022-10-16T06:07:54;2.30;;;2.10;;
42854;SDS011;29183;48.038;14.346;2022-10-16T06:10:24;6.20;;;2.70;;
42854;SDS011;29183;48.038;14.346;2022-10-16T06:12:52;4.80;;;2.15;;
42854;SDS011;29183;48.038;14.346;2022-10-16T06:15:26;1.80;;;1.60;;
42854;SDS011;29183;48.038;14.346;2022-10-16T06:17:57;2.22;;;1.88;;
42854;SDS011;29183;48.038;14.346;2022-10-16T06:20:25;7.25;;;3.13;;
42854;SDS011;29183;48.038;14.346;2022-10-16T06:23:02;7.05;;;3.38;;
42854;SDS011;29183;48.038;14.346;2022-10-16T06:25:35;3.90;;;2.30;;
42854;SDS011;29183;48.038;14.346;2022-10-16T06:33:22;4.10;;;1.65;;
42854;SDS011;29183;48.038;14.346;2022-10-16T06:35:52;3.53;;;2.60;;
42854;SDS011;29183;48.038;14.346;2022-10-16T06:38:21;6.00;;;3.33;;
42854;SDS011;29183;48.038;14.346;2022-10-16T06:40:59;5.60;;;4.05;;
42854;SDS011;29183;48.038;14.346;2022-10-16T06:43:36;4.75;;;2.97;;
42854;SDS011;29183;48.038;14.346;2022-10-16T06:46:05;4.72;;;2.85;;
42854;SDS011;29183;48.038;14.346;2022-10-16T06:48:45;4.95;;;3.30;;
42854;SDS011;29183;48.038;14.346;2022-10-16T06:53:54;6.78;;;4.30;;
42854;SDS011;29183;48.038;14.346;2022-10-16T06:56:31;5.03;;;4.03;;
42854;SDS011;29183;48.038;14.346;2022-10-16T07:01:32;4.57;;;3.75;;
42854;SDS011;29183;48.038;14.346;2022-10-16T07:04:05;7.82;;;3.80;;
42854;SDS011;29183;48.038;14.346;2022-10-16T07:06:35;4.47;;;3.00;;
42854;SDS011;29183;48.038;14.346;2022-10-16T07:09:05;6.43;;;2.95;;
42854;SDS011;29183;48.038;14.346;2022-10-16T07:11:33;5.30;;;3.55;;
42854;SDS011;29183;48.038;14.346;2022-10-16T07:14:12;4.22;;;3.25;;
42854;SDS011;29183;48.038;14.346;2022-10-16T07:16:42;3.50;;;2.80;;
42854;SDS011;29183;48.038;14.346;2022-10-16T07:19:13;4.88;;;3.67;;
42854;SDS011;29183;48.038;14.346;2022-10-16T07:21:45;4.90;;;3.00;;
42854;SDS011;29183;48.038;14.346;2022-10-16T07:24:15;3.95;;;2.83;;
42854;SDS011;29183;48.038;14.346;2022-10-16T07:26:51;6.70;;;3.67;;
42854;SDS011;29183;48.038;14.346;2022-10-16T07:29:21;5.20;;;3.35;;
42854;SDS011;29183;48.038;14.346;2022-10-16T07:34:30;5.90;;;2.88;;
42854;SDS011;29183;48.038;14.346;2022-10-16T07:36:58;4.32;;;3.38;;
42854;SDS011;29183;48.038;14.346;2022-10-16T07:39:30;6.47;;;3.03;;
42854;SDS011;29183;48.038;14.346;2022-10-16T07:42:05;4.00;;;3.08;;
42854;SDS011;29183;48.038;14.346;2022-10-16T07:44:42;6.10;;;2.67;;
42854;SDS011;29183;48.038;14.346;2022-10-16T07:49:44;6.40;;;3.38;;
42854;SDS011;29183;48.038;14.346;2022-10-16T07:52:17;13.18;;;5.20;;
42854;SDS011;29183;48.038;14.346;2022-10-16T07:54:47;5.25;;;3.35;;
42854;SDS011;29183;48.038;14.346;2022-10-16T07:57:15;4.22;;;3.00;;
42854;SDS011;29183;48.038;14.346;2022-10-16T07:59:49;4.47;;;2.67;;
42854;SDS011;29183;48.038;14.346;2022-10-16T08:02:19;3.60;;;2.85;;
42854;SDS011;29183;48.038;14.346;2022-10-16T08:04:47;5.75;;;4.18;;
42854;SDS011;29183;48.038;14.346;2022-10-16T08:07:24;8.85;;;4.15;;
42854;SDS011;29183;48.038;14.346;2022-10-16T08:12:27;4.60;;;3.15;;
42854;SDS011;29183;48.038;14.346;2022-10-16T08:20:22;4.97;;;3.42;;
42854;SDS011;29183;48.038;14.346;2022-10-16T08:22:50;6.00;;;3.28;;
42854;SDS011;29183;48.038;14.346;2022-10-16T08:25:18;5.22;;;3.15;;
42854;SDS011;29183;48.038;14.346;2022-10-16T08:30:22;5.10;;;3.05;;
42854;SDS011;29183;48.038;14.346;2022-10-16T08:32:50;5.38;;;2.92;;
42854;SDS011;29183;48.038;14.346;2022-10-16T08:35:19;6.70;;;3.28;;
42854;SDS011;29183;48.038;14.346;2022-10-16T08:37:50;5.85;;;3.08;;
42854;SDS011;29183;48.038;14.346;2022-10-16T08:40:25;3.33;;;2.93;;
42854;SDS011;29183;48.038;14.346;2022-10-16T08:51:04;5.68;;;2.55;;
42854;SDS011;29183;48.038;14.346;2022-10-16T08:53:52;3.15;;;2.35;;
42854;SDS011;29183;48.038;14.346;2022-10-16T08:58:59;3.17;;;2.33;;
42854;SDS011;29183;48.038;14.346;2022-10-16T09:01:38;5.25;;;2.50;;
42854;SDS011;29183;48.038;14.346;2022-10-16T09:07:15;4.95;;;2.30;;
42854;SDS011;29183;48.038;14.346;2022-10-16T09:12:46;5.13;;;2.53;;
42854;SDS011;29183;48.038;14.346;2022-10-16T09:25:54;2.85;;;2.05;;
42854;SDS011;29183;48.038;14.346;2022-10-16T09:28:27;3.47;;;2.50;;
42854;SDS011;29183;48.038;14.346;2022-10-16T09:30:56;6.15;;;2.83;;
42854;SDS011;29183;48.038;14.346;2022-10-16T09:33:35;2.58;;;2.20;;
42854;SDS011;29183;48.038;14.346;2022-10-16T09:36:04;2.53;;;2.33;;
42854;SDS011;29183;48.038;14.346;2022-10-16T09:38:36;3.00;;;2.27;;
42854;SDS011;29183;48.038;14.346;2022-10-16T09:41:13;4.82;;;2.53;;
42854;SDS011;29183;48.038;14.346;2022-10-16T09:46:37;24.10;;;4.25;;
42854;SDS011;29183;48.038;14.346;2022-10-16T09:52:13;4.20;;;2.50;;
42854;SDS011;29183;48.038;14.346;2022-10-16T10:03:02;5.60;;;2.58;;
42854;SDS011;29183;48.038;14.346;2022-10-16T10:05:38;2.83;;;2.50;;
42854;SDS011;29183;48.038;14.346;2022-10-16T10:08:12;4.90;;;2.67;;
42854;SDS011;29183;48.038;14.346;2022-10-16T10:10:43;5.90;;;2.67;;
42854;SDS011;29183;48.038;14.346;2022-10-16T10:13:30;3.33;;;2.50;;
42854;SDS011;29183;48.038;14.346;2022-10-16T10:16:00;5.80;;;2.30;;
42854;SDS011;29183;48.038;14.346;2022-10-16T10:18:30;7.45;;;2.70;;
42854;SDS011;29183;48.038;14.346;2022-10-16T10:21:00;5.82;;;3.00;;
42854;SDS011;29183;48.038;14.346;2022-10-16T10:26:59;3.67;;;2.40;;
42854;SDS011;29183;48.038;14.346;2022-10-16T10:32:44;4.72;;;3.00;;
42854;SDS011;29183;48.038;14.346;2022-10-16T10:38:30;4.22;;;2.97;;
42854;SDS011;29183;48.038;14.346;2022-10-16T10:52:22;2.38;;;2.17;;
42854;SDS011;29183;48.038;14.346;2022-10-16T11:03:42;3.75;;;2.47;;
42854;SDS011;29183;48.038;14.346;2022-10-16T11:06:23;3.22;;;2.92;;
42854;SDS011;29183;48.038;14.346;2022-10-16T11:09:00;6.28;;;3.33;;
42854;SDS011;29183;48.038;14.346;2022-10-16T11:11:32;3.58;;;2.63;;
42854;SDS011;29183;48.038;14.346;2022-10-16T11:14:06;4.80;;;3.25;;
42854;SDS011;29183;48.038;14.346;2022-10-16T11:16:43;2.45;;;2.10;;
42854;SDS011;29183;48.038;14.346;2022-10-16T11:25:16;4.78;;;2.38;;
42854;SDS011;29183;48.038;14.346;2022-10-16T11:27:55;4.18;;;2.67;;
42854;SDS011;29183;48.038;14.346;2022-10-16T11:30:26;5.22;;;2.35;;
42854;SDS011;29183;48.038;14.346;2022-10-16T11:39:01;2.53;;;2.13;;
42854;SDS011;29183;48.038;14.346;2022-10-16T11:48:02;6.03;;;2.95;;
42854;SDS011;29183;48.038;14.346;2022-10-16T11:50:29;4.20;;;2.58;;
42854;SDS011;29183;48.038;14.346;2022-10-16T11:53:13;4.55;;;2.58;;
42854;SDS011;29183;48.038;14.346;2022-10-16T11:55:51;2.45;;;2.25;;
42854;SDS011;29183;48.038;14.346;2022-10-16T12:01:46;2.83;;;2.42;;
42854;SDS011;29183;48.038;14.346;2022-10-16T12:09:38;4.05;;;2.97;;
42854;SDS011;29183;48.038;14.346;2022-10-16T12:18:00;4.85;;;1.98;;
42854;SDS011;29183;48.038;14.346;2022-10-16T12:20:34;3.92;;;2.13;;
42854;SDS011;29183;48.038;14.346;2022-10-16T12:23:06;3.33;;;2.45;;
42854;SDS011;29183;48.038;14.346;2022-10-16T12:28:26;3.92;;;2.30;;
42854;SDS011;29183;48.038;14.346;2022-10-16T12:31:00;3.05;;;1.90;;
42854;SDS011;29183;48.038;14.346;2022-10-16T12:33:39;5.55;;;1.98;;
42854;SDS011;29183;48.038;14.346;2022-10-16T12:36:15;8.85;;;2.50;;
42854;SDS011;29183;48.038;14.346;2022-10-16T12:41:37;3.08;;;2.00;;
42854;SDS011;29183;48.038;14.346;2022-10-16T12:47:46;3.30;;;1.73;;
42854;SDS011;29183;48.038;14.346;2022-10-16T12:49:58;2.38;;;2.17;;
42854;SDS011;29183;48.038;14.346;2022-10-16T12:55:25;3.67;;;1.77;;
42854;SDS011;29183;48.038;14.346;2022-10-16T13:03:43;2.60;;;2.10;;
42854;SDS011;29183;48.038;14.346;2022-10-16T13:06:17;3.85;;;1.88;;
42854;SDS011;29183;48.038;14.346;2022-10-16T13:29:17;2.45;;;1.98;;
42854;SDS011;29183;48.038;14.346;2022-10-16T13:34:31;3.42;;;2.20;;
42854;SDS011;29183;48.038;14.346;2022-10-16T13:36:59;2.75;;;2.10;;
42854;SDS011;29183;48.038;14.346;2022-10-16T13:39:29;2.50;;;1.77;;
42854;SDS011;29183;48.038;14.346;2022-10-16T13:42:15;3.97;;;1.95;;
42854;SDS011;29183;48.038;14.346;2022-10-16T13:47:41;1.95;;;1.70;;
42854;SDS011;29183;48.038;14.346;2022-10-16T13:55:48;2.40;;;1.90;;
42854;SDS011;29183;48.038;14.346;2022-10-16T13:58:27;4.20;;;2.25;;
42854;SDS011;29183;48.038;14.346;2022-10-16T14:00:58;3.70;;;2.10;;
42854;SDS011;29183;48.038;14.346;2022-10-16T14:03:28;4.30;;;2.05;;
42854;SDS011;29183;48.038;14.346;2022-10-16T14:06:00;1.90;;;1.75;;
42854;SDS011;29183;48.038;14.346;2022-10-16T14:08:42;2.22;;;1.77;;
42854;SDS011;29183;48.038;14.346;2022-10-16T14:11:29;2.38;;;1.98;;
42854;SDS011;29183;48.038;14.346;2022-10-16T14:14:15;2.20;;;2.00;;
42854;SDS011;29183;48.038;14.346;2022-10-16T14:16:50;6.93;;;1.98;;
42854;SDS011;29183;48.038;14.346;2022-10-16T14:19:21;2.75;;;1.83;;
42854;SDS011;29183;48.038;14.346;2022-10-16T14:21:52;2.08;;;1.65;;
42854;SDS011;29183;48.038;14.346;2022-10-16T14:27:20;5.22;;;2.00;;
42854;SDS011;29183;48.038;14.346;2022-10-16T14:32:55;5.07;;;1.77;;
42854;SDS011;29183;48.038;14.346;2022-10-16T14:35:24;2.88;;;1.70;;
42854;SDS011;29183;48.038;14.346;2022-10-16T14:38:00;4.80;;;1.65;;
42854;SDS011;29183;48.038;14.346;2022-10-16T14:43:35;3.42;;;2.22;;
42854;SDS011;29183;48.038;14.346;2022-10-16T14:46:12;2.88;;;1.65;;
42854;SDS011;29183;48.038;14.346;2022-10-16T14:48:43;5.82;;;2.08;;
42854;SDS011;29183;48.038;14.346;2022-10-16T14:51:17;3.80;;;2.25;;
42854;SDS011;29183;48.038;14.346;2022-10-16T14:53:51;3.88;;;2.63;;
42854;SDS011;29183;48.038;14.346;2022-10-16T15:00:02;6.22;;;2.28;;
42854;SDS011;29183;48.038;14.346;2022-10-16T15:10:28;6.03;;;5.38;;
42854;SDS011;29183;48.038;14.346;2022-10-16T15:20:52;3.30;;;2.47;;
42854;SDS011;29183;48.038;14.346;2022-10-16T15:23:20;2.47;;;1.85;;
42854;SDS011;29183;48.038;14.346;2022-10-16T15:28:35;6.78;;;1.67;;
42854;SDS011;29183;48.038;14.346;2022-10-16T15:31:10;3.47;;;1.60;;
42854;SDS011;29183;48.038;14.346;2022-10-16T15:33:54;4.53;;;1.67;;
42854;SDS011;29183;48.038;14.346;2022-10-16T15:36:28;4.35;;;1.63;;
42854;SDS011;29183;48.038;14.346;2022-10-16T15:38:57;13.90;;;1.80;;
42854;SDS011;29183;48.038;14.346;2022-10-16T15:41:33;7.82;;;1.75;;
42854;SDS011;29183;48.038;14.346;2022-10-16T15:46:56;6.80;;;1.75;;
42854;SDS011;29183;48.038;14.346;2022-10-16T15:49:25;18.63;;;3.17;;
42854;SDS011;29183;48.038;14.346;2022-10-16T15:52:10;10.93;;;2.03;;
42854;SDS011;29183;48.038;14.346;2022-10-16T15:57:41;2.45;;;1.83;;
42854;SDS011;29183;48.038;14.346;2022-10-16T16:03:28;8.27;;;1.65;;
42854;SDS011;29183;48.038;14.346;2022-10-16T16:05:57;6.22;;;1.60;;
42854;SDS011;29183;48.038;14.346;2022-10-16T16:08:30;4.90;;;2.03;;
42854;SDS011;29183;48.038;14.346;2022-10-16T16:10:59;13.07;;;6.18;;
42854;SDS011;29183;48.038;14.346;2022-10-16T16:13:28;5.85;;;3.60;;
42854;SDS011;29183;48.038;14.346;2022-10-16T16:16:01;8.70;;;2.30;;
42854;SDS011;29183;48.038;14.346;2022-10-16T16:21:22;7.18;;;1.88;;
42854;SDS011;29183;48.038;14.346;2022-10-16T16:23:54;5.40;;;2.40;;
42854;SDS011;29183;48.038;14.346;2022-10-16T16:26:29;3.63;;;2.05;;
42854;SDS011;29183;48.038;14.346;2022-10-16T16:31:48;5.38;;;2.47;;
42854;SDS011;29183;48.038;14.346;2022-10-16T16:37:15;5.55;;;1.77;;
42854;SDS011;29183;48.038;14.346;2022-10-16T16:39:44;5.87;;;2.27;;
42854;SDS011;29183;48.038;14.346;2022-10-16T16:42:14;4.05;;;2.40;;
42854;SDS011;29183;48.038;14.346;2022-10-16T16:47:55;5.10;;;2.63;;
42854;SDS011;29183;48.038;14.346;2022-10-16T16:53:20;8.95;;;2.90;;
42854;SDS011;29183;48.038;14.346;2022-10-16T16:55:55;5.75;;;2.45;;
42854;SDS011;29183;48.038;14.346;2022-10-16T16:58:35;6.72;;;2.75;;
42854;SDS011;29183;48.038;14.346;2022-10-16T17:04:05;5.10;;;2.47;;
42854;SDS011;29183;48.038;14.346;2022-10-16T17:06:34;3.25;;;2.47;;
42854;SDS011;29183;48.038;14.346;2022-10-16T17:09:07;3.55;;;2.35;;
42854;SDS011;29183;48.038;14.346;2022-10-16T17:11:43;9.35;;;3.30;;
42854;SDS011;29183;48.038;14.346;2022-10-16T17:16:48;5.35;;;2.70;;
42854;SDS011;29183;48.038;14.346;2022-10-16T17:19:23;4.75;;;2.67;;
42854;SDS011;29183;48.038;14.346;2022-10-16T17:22:06;7.30;;;3.20;;
42854;SDS011;29183;48.038;14.346;2022-10-16T17:24:52;7.95;;;3.20;;
42854;SDS011;29183;48.038;14.346;2022-10-16T17:27:39;6.60;;;3.20;;
42854;SDS011;29183;48.038;14.346;2022-10-16T17:36:04;3.30;;;2.55;;
42854;SDS011;29183;48.038;14.346;2022-10-16T17:38:34;9.00;;;2.70;;
42854;SDS011;29183;48.038;14.346;2022-10-16T17:46:38;6.18;;;2.85;;
42854;SDS011;29183;48.038;14.346;2022-10-16T17:52:02;2.72;;;2.50;;
42854;SDS011;29183;48.038;14.346;2022-10-16T17:54:30;7.78;;;2.60;;
42854;SDS011;29183;48.038;14.346;2022-10-16T17:57:01;4.10;;;2.55;;
42854;SDS011;29183;48.038;14.346;2022-10-16T17:59:29;6.65;;;2.33;;
42854;SDS011;29183;48.038;14.346;2022-10-16T18:02:03;5.90;;;2.67;;
42854;SDS011;29183;48.038;14.346;2022-10-16T18:04:41;10.95;;;3.03;;
42854;SDS011;29183;48.038;14.346;2022-10-16T18:07:09;4.72;;;2.63;;
42854;SDS011;29183;48.038;14.346;2022-10-16T18:09:42;9.02;;;3.45;;
42854;SDS011;29183;48.038;14.346;2022-10-16T18:15:13;8.68;;;4.05;;
42854;SDS011;29183;48.038;14.346;2022-10-16T18:17:43;8.38;;;4.28;;
42854;SDS011;29183;48.038;14.346;2022-10-16T18:20:20;8.68;;;4.90;;
42854;SDS011;29183;48.038;14.346;2022-10-16T18:22:48;10.25;;;5.30;;
42854;SDS011;29183;48.038;14.346;2022-10-16T18:27:57;9.75;;;6.88;;
42854;SDS011;29183;48.038;14.346;2022-10-16T18:30:26;13.40;;;6.30;;
42854;SDS011;29183;48.038;14.346;2022-10-16T18:33:10;10.90;;;5.38;;
42854;SDS011;29183;48.038;14.346;2022-10-16T18:35:41;16.05;;;9.40;;
42854;SDS011;29183;48.038;14.346;2022-10-16T18:38:09;9.43;;;6.30;;
42854;SDS011;29183;48.038;14.346;2022-10-16T18:40:40;9.20;;;5.53;;
42854;SDS011;29183;48.038;14.346;2022-10-16T18:43:10;15.63;;;7.70;;
42854;SDS011;29183;48.038;14.346;2022-10-16T18:57:49;24.50;;;13.45;;
42854;SDS011;29183;48.038;14.346;2022-10-16T19:00:29;12.50;;;5.07;;
42854;SDS011;29183;48.038;14.346;2022-10-16T19:03:05;14.57;;;5.25;;
42854;SDS011;29183;48.038;14.346;2022-10-16T19:11:13;18.52;;;11.60;;
42854;SDS011;29183;48.038;14.346;2022-10-16T19:16:34;18.48;;;9.43;;
42854;SDS011;29183;48.038;14.346;2022-10-16T19:19:05;10.43;;;7.28;;
42854;SDS011;29183;48.038;14.346;2022-10-16T19:21:40;15.57;;;9.77;;
42854;SDS011;29183;48.038;14.346;2022-10-16T19:24:11;12.80;;;8.15;;
42854;SDS011;29183;48.038;14.346;2022-10-16T19:26:43;20.33;;;8.88;;
42854;SDS011;29183;48.038;14.346;2022-10-16T19:29:25;11.93;;;7.07;;
42854;SDS011;29183;48.038;14.346;2022-10-16T19:32:13;12.15;;;6.57;;
42854;SDS011;29183;48.038;14.346;2022-10-16T19:37:58;12.82;;;7.72;;
42854;SDS011;29183;48.038;14.346;2022-10-16T19:40:27;13.77;;;8.55;;
42854;SDS011;29183;48.038;14.346;2022-10-16T19:42:55;19.58;;;11.52;;
42854;SDS011;29183;48.038;14.346;2022-10-16T19:48:12;19.17;;;13.10;;
42854;SDS011;29183;48.038;14.346;2022-10-16T19:50:58;19.25;;;12.63;;
42854;SDS011;29183;48.038;14.346;2022-10-16T19:53:34;17.55;;;11.13;;
42854;SDS011;29183;48.038;14.346;2022-10-16T19:56:10;27.52;;;14.60;;
42854;SDS011;29183;48.038;14.346;2022-10-16T19:58:38;18.75;;;11.73;;
42854;SDS011;29183;48.038;14.346;2022-10-16T20:01:07;35.03;;;14.20;;
42854;SDS011;29183;48.038;14.346;2022-10-16T20:03:37;15.80;;;9.73;;
42854;SDS011;29183;48.038;14.346;2022-10-16T20:06:08;28.17;;;14.77;;
42854;SDS011;29183;48.038;14.346;2022-10-16T20:08:37;16.48;;;8.65;;
42854;SDS011;29183;48.038;14.346;2022-10-16T20:11:08;15.77;;;8.25;;
42854;SDS011;29183;48.038;14.346;2022-10-16T20:16:08;18.80;;;10.07;;
42854;SDS011;29183;48.038;14.346;2022-10-16T20:18:39;20.92;;;12.98;;
42854;SDS011;29183;48.038;14.346;2022-10-16T20:21:19;19.35;;;11.38;;
42854;SDS011;29183;48.038;14.346;2022-10-16T20:23:55;18.60;;;12.13;;
42854;SDS011;29183;48.038;14.346;2022-10-16T20:26:39;18.88;;;11.25;;
42854;SDS011;29183;48.038;14.346;2022-10-16T20:31:42;20.52;;;12.95;;
42854;SDS011;29183;48.038;14.346;2022-10-16T20:34:24;20.88;;;13.90;;
42854;SDS011;29183;48.038;14.346;2022-10-16T20:39:57;19.50;;;12.32;;
42854;SDS011;29183;48.038;14.346;2022-10-16T20:42:38;16.08;;;10.45;;
42854;SDS011;29183;48.038;14.346;2022-10-16T20:47:55;23.65;;;12.25;;
42854;SDS011;29183;48.038;14.346;2022-10-16T20:50:30;21.38;;;12.63;;
42854;SDS011;29183;48.038;14.346;2022-10-16T20:55:47;142.70;;;19.45;;
42854;SDS011;29183;48.038;14.346;2022-10-16T20:58:16;41.22;;;14.20;;
42854;SDS011;29183;48.038;14.346;2022-10-16T21:03:22;16.60;;;11.50;;
42854;SDS011;29183;48.038;14.346;2022-10-16T21:06:05;13.52;;;8.80;;
42854;SDS011;29183;48.038;14.346;2022-10-16T21:08:35;18.10;;;8.88;;
42854;SDS011;29183;48.038;14.346;2022-10-16T21:14:05;19.10;;;9.98;;
42854;SDS011;29183;48.038;14.346;2022-10-16T21:16:36;17.05;;;9.07;;
42854;SDS011;29183;48.038;14.346;2022-10-16T21:19:07;18.73;;;9.70;;
42854;SDS011;29183;48.038;14.346;2022-10-16T21:21:36;19.00;;;8.93;;
42854;SDS011;29183;48.038;14.346;2022-10-16T21:24:06;14.85;;;8.70;;
42854;SDS011;29183;48.038;14.346;2022-10-16T21:26:42;12.68;;;8.45;;
42854;SDS011;29183;48.038;14.346;2022-10-16T21:29:18;15.07;;;9.70;;
42854;SDS011;29183;48.038;14.346;2022-10-16T21:36:56;19.73;;;9.55;;
42854;SDS011;29183;48.038;14.346;2022-10-16T21:39:36;15.60;;;9.43;;
42854;SDS011;29183;48.038;14.346;2022-10-16T21:42:06;13.30;;;8.77;;
42854;SDS011;29183;48.038;14.346;2022-10-16T21:44:34;65.20;;;11.73;;
42854;SDS011;29183;48.038;14.346;2022-10-16T21:47:02;58.55;;;10.63;;
42854;SDS011;29183;48.038;14.346;2022-10-16T21:49:31;20.73;;;7.85;;
42854;SDS011;29183;48.038;14.346;2022-10-16T21:52:01;12.20;;;7.57;;
42854;SDS011;29183;48.038;14.346;2022-10-16T21:54:44;17.40;;;6.90;;
42854;SDS011;29183;48.038;14.346;2022-10-16T21:57:17;16.05;;;7.90;;
42854;SDS011;29183;48.038;14.346;2022-10-16T21:59:55;14.30;;;8.10;;
42854;SDS011;29183;48.038;14.346;2022-10-16T22:05:23;11.15;;;6.25;;
42854;SDS011;29183;48.038;14.346;2022-10-16T22:07:52;11.05;;;5.72;;
42854;SDS011;29183;48.038;14.346;2022-10-16T22:12:53;9.68;;;5.70;;
42854;SDS011;29183;48.038;14.346;2022-10-16T22:15:20;9.00;;;5.72;;
42854;SDS011;29183;48.038;14.346;2022-10-16T22:17:53;30.52;;;7.53;;
42854;SDS011;29183;48.038;14.346;2022-10-16T22:20:24;25.38;;;6.80;;
42854;SDS011;29183;48.038;14.346;2022-10-16T22:22:52;8.43;;;5.55;;
42854;SDS011;29183;48.038;14.346;2022-10-16T22:25:21;8.80;;;5.55;;